Terminal Aerodrome Forecast
Issued by NWS

Home | Current Version | Previous Version | Text Only | Print | Product List | Glossary On
Versions: 1 2 3 4 5 6 7 8 9 10 11 12 13 14 15 16 17 18 19 20 21 22 23 24 25 26 27 28 29 30 31 32 33 34 35 36 37
000
FTUS43 KLOT 020200 AAA
TAFORD
TAF AMD
KORD 020253Z 0203/0306 12009KT P6SM SCT100 BKN250
     FM020500 16007KT P6SM VCSH SCT050 BKN100
     FM020800 16006KT 6SM -SHRA BKN050 OVC100
     FM021100 18009KT P6SM SCT015 BKN030 OVC100
     FM022100 18010G16KT 5SM -SHRA VCTS OVC040CB
      TEMPO 0222/0302 2SM TSRA SCT020 OVC030CB
     FM030400 20012KT 4SM SHRA BR SCT007 BKN012 OVC030=

USA.gov is the U.S. government's official web portal to all federal, state and local government web resources and services.